sensor_id;sensor_type;location;lat;lon;timestamp;pressure;altitude;pressure_sealevel;temperature;humidity
20455;BME280;10386;54.314;10.022;2022-10-31T00:00:48;100663.69;;;10.73;100.00
20455;BME280;10386;54.314;10.022;2022-10-31T00:03:16;100668.44;;;10.82;100.00
20455;BME280;10386;54.314;10.022;2022-10-31T00:05:45;100672.06;;;10.93;100.00
20455;BME280;10386;54.314;10.022;2022-10-31T00:08:14;100657.75;;;10.91;100.00
20455;BME280;10386;54.314;10.022;2022-10-31T00:10:42;100660.94;;;11.08;100.00
20455;BME280;10386;54.314;10.022;2022-10-31T00:13:10;100671.22;;;11.16;100.00
20455;BME280;10386;54.314;10.022;2022-10-31T00:15:39;100666.59;;;11.05;100.00
20455;BME280;10386;54.314;10.022;2022-10-31T00:18:08;100671.09;;;10.94;100.00
20455;BME280;10386;54.314;10.022;2022-10-31T00:20:36;100679.47;;;10.91;100.00
20455;BME280;10386;54.314;10.022;2022-10-31T00:23:04;100691.09;;;10.93;100.00
20455;BME280;10386;54.314;10.022;2022-10-31T00:25:37;100681.84;;;10.96;100.00
20455;BME280;10386;54.314;10.022;2022-10-31T00:28:06;100686.41;;;10.95;100.00
20455;BME280;10386;54.314;10.022;2022-10-31T00:30:34;100684.44;;;10.97;100.00
20455;BME280;10386;54.314;10.022;2022-10-31T00:33:03;100684.34;;;10.98;100.00
20455;BME280;10386;54.314;10.022;2022-10-31T00:35:31;100683.97;;;11.03;100.00
20455;BME280;10386;54.314;10.022;2022-10-31T00:37:58;100689.41;;;11.03;100.00
20455;BME280;10386;54.314;10.022;2022-10-31T00:40:28;100694.75;;;11.04;100.00
20455;BME280;10386;54.314;10.022;2022-10-31T00:42:56;100693.34;;;10.99;100.00
20455;BME280;10386;54.314;10.022;2022-10-31T00:45:24;100688.88;;;10.98;100.00
20455;BME280;10386;54.314;10.022;2022-10-31T00:47:51;100691.84;;;10.95;100.00
20455;BME280;10386;54.314;10.022;2022-10-31T00:50:18;100706.41;;;10.94;100.00
20455;BME280;10386;54.314;10.022;2022-10-31T00:52:45;100703.69;;;10.94;100.00
20455;BME280;10386;54.314;10.022;2022-10-31T00:55:13;100699.00;;;10.96;100.00
20455;BME280;10386;54.314;10.022;2022-10-31T00:57:40;100698.47;;;10.91;100.00
20455;BME280;10386;54.314;10.022;2022-10-31T01:00:08;100703.59;;;10.96;100.00
20455;BME280;10386;54.314;10.022;2022-10-31T01:02:35;100694.69;;;10.94;100.00
20455;BME280;10386;54.314;10.022;2022-10-31T01:05:03;100703.16;;;10.89;100.00
20455;BME280;10386;54.314;10.022;2022-10-31T01:07:31;100703.38;;;10.86;100.00
20455;BME280;10386;54.314;10.022;2022-10-31T01:09:58;100700.59;;;10.75;100.00
20455;BME280;10386;54.314;10.022;2022-10-31T01:12:26;100706.72;;;10.66;100.00
20455;BME280;10386;54.314;10.022;2022-10-31T01:14:53;100711.69;;;10.72;100.00
20455;BME280;10386;54.314;10.022;2022-10-31T01:17:21;100720.19;;;10.68;100.00
20455;BME280;10386;54.314;10.022;2022-10-31T01:19:48;100710.03;;;10.82;100.00
20455;BME280;10386;54.314;10.022;2022-10-31T01:22:16;100702.53;;;10.86;100.00
20455;BME280;10386;54.314;10.022;2022-10-31T01:24:43;100706.22;;;10.85;100.00
20455;BME280;10386;54.314;10.022;2022-10-31T01:27:11;100704.84;;;11.02;100.00
20455;BME280;10386;54.314;10.022;2022-10-31T01:29:38;100703.81;;;10.93;100.00
20455;BME280;10386;54.314;10.022;2022-10-31T01:32:06;100711.06;;;10.92;100.00
20455;BME280;10386;54.314;10.022;2022-10-31T01:34:33;100711.59;;;10.97;100.00
20455;BME280;10386;54.314;10.022;2022-10-31T01:37:01;100711.94;;;11.39;100.00
20455;BME280;10386;54.314;10.022;2022-10-31T01:39:29;100725.34;;;11.77;100.00
20455;BME280;10386;54.314;10.022;2022-10-31T01:41:56;100730.13;;;12.08;100.00
20455;BME280;10386;54.314;10.022;2022-10-31T01:47:08;100733.78;;;12.41;100.00
20455;BME280;10386;54.314;10.022;2022-10-31T01:49:46;100743.16;;;12.70;100.00
20455;BME280;10386;54.314;10.022;2022-10-31T01:54:56;100730.72;;;13.32;100.00
20455;BME280;10386;54.314;10.022;2022-10-31T01:57:25;100740.47;;;13.34;100.00
20455;BME280;10386;54.314;10.022;2022-10-31T02:00:02;100739.31;;;13.48;100.00
20455;BME280;10386;54.314;10.022;2022-10-31T02:02:31;100743.53;;;13.52;100.00
20455;BME280;10386;54.314;10.022;2022-10-31T02:05:01;100752.91;;;13.59;100.00
20455;BME280;10386;54.314;10.022;2022-10-31T02:08:25;100751.19;;;13.58;100.00
20455;BME280;10386;54.314;10.022;2022-10-31T02:10:32;100754.75;;;13.58;100.00
20455;BME280;10386;54.314;10.022;2022-10-31T02:13:03;100752.03;;;13.58;100.00
20455;BME280;10386;54.314;10.022;2022-10-31T02:15:32;100762.34;;;13.55;100.00
20455;BME280;10386;54.314;10.022;2022-10-31T02:17:59;100762.22;;;13.56;100.00
20455;BME280;10386;54.314;10.022;2022-10-31T02:20:32;100760.75;;;13.52;100.00
20455;BME280;10386;54.314;10.022;2022-10-31T02:26:09;100760.78;;;13.41;100.00
20455;BME280;10386;54.314;10.022;2022-10-31T02:34:11;100792.53;;;13.31;100.00
20455;BME280;10386;54.314;10.022;2022-10-31T02:36:53;100789.69;;;13.33;100.00
20455;BME280;10386;54.314;10.022;2022-10-31T02:42:11;100811.63;;;13.31;100.00
20455;BME280;10386;54.314;10.022;2022-10-31T02:47:33;100817.31;;;13.39;100.00
20455;BME280;10386;54.314;10.022;2022-10-31T02:50:06;100816.06;;;13.43;100.00
20455;BME280;10386;54.314;10.022;2022-10-31T02:52:35;100822.75;;;13.39;100.00
20455;BME280;10386;54.314;10.022;2022-10-31T02:55:41;100821.03;;;13.38;100.00
20455;BME280;10386;54.314;10.022;2022-10-31T02:58:09;100812.59;;;13.41;100.00
20455;BME280;10386;54.314;10.022;2022-10-31T03:06:04;100831.59;;;13.32;100.00
20455;BME280;10386;54.314;10.022;2022-10-31T03:09:00;100828.38;;;13.27;100.00
20455;BME280;10386;54.314;10.022;2022-10-31T03:11:35;100830.22;;;13.26;100.00
20455;BME280;10386;54.314;10.022;2022-10-31T03:14:12;100832.22;;;13.24;100.00
20455;BME280;10386;54.314;10.022;2022-10-31T03:16:52;100855.16;;;13.22;100.00
20455;BME280;10386;54.314;10.022;2022-10-31T03:22:04;100865.94;;;13.23;100.00
20455;BME280;10386;54.314;10.022;2022-10-31T03:24:37;100866.81;;;13.24;100.00
20455;BME280;10386;54.314;10.022;2022-10-31T03:27:07;100870.28;;;13.26;100.00
20455;BME280;10386;54.314;10.022;2022-10-31T03:29:37;100888.63;;;13.24;100.00
20455;BME280;10386;54.314;10.022;2022-10-31T03:32:13;100902.34;;;13.22;100.00
20455;BME280;10386;54.314;10.022;2022-10-31T03:34:44;100916.00;;;13.22;100.00
20455;BME280;10386;54.314;10.022;2022-10-31T03:37:15;100927.78;;;13.23;100.00
20455;BME280;10386;54.314;10.022;2022-10-31T03:39:45;100932.09;;;13.25;100.00
20455;BME280;10386;54.314;10.022;2022-10-31T03:42:21;100937.56;;;13.25;100.00
20455;BME280;10386;54.314;10.022;2022-10-31T03:47:43;100947.72;;;13.23;100.00
20455;BME280;10386;54.314;10.022;2022-10-31T03:50:13;100946.88;;;13.23;100.00
20455;BME280;10386;54.314;10.022;2022-10-31T03:53:00;100942.75;;;13.28;100.00
20455;BME280;10386;54.314;10.022;2022-10-31T03:55:39;100931.84;;;13.28;100.00
20455;BME280;10386;54.314;10.022;2022-10-31T03:58:21;100939.19;;;13.28;100.00
20455;BME280;10386;54.314;10.022;2022-10-31T04:00:51;100934.81;;;13.25;100.00
20455;BME280;10386;54.314;10.022;2022-10-31T04:03:56;100940.28;;;13.25;100.00
20455;BME280;10386;54.314;10.022;2022-10-31T04:06:26;100947.84;;;13.33;100.00
20455;BME280;10386;54.314;10.022;2022-10-31T04:08:59;100948.47;;;13.36;100.00
20455;BME280;10386;54.314;10.022;2022-10-31T04:11:31;100962.72;;;13.40;100.00
20455;BME280;10386;54.314;10.022;2022-10-31T04:14:01;100956.16;;;13.42;100.00
20455;BME280;10386;54.314;10.022;2022-10-31T04:16:29;100961.50;;;13.44;100.00
20455;BME280;10386;54.314;10.022;2022-10-31T04:18:57;100965.22;;;13.43;100.00
20455;BME280;10386;54.314;10.022;2022-10-31T04:21:28;100934.47;;;13.41;100.00
20455;BME280;10386;54.314;10.022;2022-10-31T04:23:56;100949.19;;;13.38;100.00
20455;BME280;10386;54.314;10.022;2022-10-31T04:26:24;100956.28;;;13.41;100.00
20455;BME280;10386;54.314;10.022;2022-10-31T04:28:51;100958.28;;;13.39;100.00
20455;BME280;10386;54.314;10.022;2022-10-31T04:31:19;100965.81;;;13.46;100.00
20455;BME280;10386;54.314;10.022;2022-10-31T04:33:46;100967.69;;;13.46;100.00
20455;BME280;10386;54.314;10.022;2022-10-31T04:36:13;100968.03;;;13.41;100.00
20455;BME280;10386;54.314;10.022;2022-10-31T04:38:41;101007.34;;;13.39;100.00
20455;BME280;10386;54.314;10.022;2022-10-31T04:41:08;100988.13;;;13.40;100.00
20455;BME280;10386;54.314;10.022;2022-10-31T04:43:36;100978.34;;;13.38;100.00
20455;BME280;10386;54.314;10.022;2022-10-31T04:46:03;100975.72;;;13.36;100.00
20455;BME280;10386;54.314;10.022;2022-10-31T04:48:31;100973.88;;;13.37;100.00
20455;BME280;10386;54.314;10.022;2022-10-31T04:50:59;100972.00;;;13.37;100.00
20455;BME280;10386;54.314;10.022;2022-10-31T04:53:27;100967.44;;;13.38;100.00
20455;BME280;10386;54.314;10.022;2022-10-31T04:55:54;100958.88;;;13.42;100.00
20455;BME280;10386;54.314;10.022;2022-10-31T04:58:21;100972.00;;;13.37;100.00
20455;BME280;10386;54.314;10.022;2022-10-31T05:00:52;100976.13;;;13.43;100.00
20455;BME280;10386;54.314;10.022;2022-10-31T05:03:19;100971.50;;;13.43;100.00
20455;BME280;10386;54.314;10.022;2022-10-31T05:05:46;100964.06;;;13.45;100.00
20455;BME280;10386;54.314;10.022;2022-10-31T05:08:14;100970.03;;;13.50;100.00
20455;BME280;10386;54.314;10.022;2022-10-31T05:10:41;100962.97;;;13.48;100.00
20455;BME280;10386;54.314;10.022;2022-10-31T05:13:09;100951.19;;;13.47;100.00
20455;BME280;10386;54.314;10.022;2022-10-31T05:15:36;100960.34;;;13.46;100.00
20455;BME280;10386;54.314;10.022;2022-10-31T05:18:04;100959.13;;;13.50;100.00
20455;BME280;10386;54.314;10.022;2022-10-31T05:20:31;100955.66;;;13.48;100.00
20455;BME280;10386;54.314;10.022;2022-10-31T05:22:59;100954.91;;;13.46;100.00
20455;BME280;10386;54.314;10.022;2022-10-31T05:25:27;100950.34;;;13.47;100.00
20455;BME280;10386;54.314;10.022;2022-10-31T05:27:56;101080.88;;;13.51;100.00
20455;BME280;10386;54.314;10.022;2022-10-31T05:30:31;101075.78;;;13.47;100.00
20455;BME280;10386;54.314;10.022;2022-10-31T05:32:59;101077.63;;;13.46;100.00
20455;BME280;10386;54.314;10.022;2022-10-31T05:35:29;101076.03;;;13.44;100.00
20455;BME280;10386;54.314;10.022;2022-10-31T05:37:57;101080.59;;;13.43;100.00
20455;BME280;10386;54.314;10.022;2022-10-31T05:40:26;101078.03;;;13.42;100.00
20455;BME280;10386;54.314;10.022;2022-10-31T05:42:55;101076.28;;;13.41;100.00
20455;BME280;10386;54.314;10.022;2022-10-31T05:45:24;101084.06;;;13.34;100.00
20455;BME280;10386;54.314;10.022;2022-10-31T05:47:57;101098.94;;;13.30;100.00
20455;BME280;10386;54.314;10.022;2022-10-31T05:50:26;101092.34;;;13.22;100.00
20455;BME280;10386;54.314;10.022;2022-10-31T05:52:59;101102.72;;;13.17;100.00
20455;BME280;10386;54.314;10.022;2022-10-31T05:55:27;101101.47;;;13.10;100.00
20455;BME280;10386;54.314;10.022;2022-10-31T05:57:55;101096.09;;;12.97;100.00
20455;BME280;10386;54.314;10.022;2022-10-31T06:00:24;101098.06;;;12.95;100.00
20455;BME280;10386;54.314;10.022;2022-10-31T06:03:03;101093.72;;;12.93;100.00
20455;BME280;10386;54.314;10.022;2022-10-31T06:05:31;101088.53;;;13.01;100.00
20455;BME280;10386;54.314;10.022;2022-10-31T06:07:59;101085.56;;;13.04;100.00
20455;BME280;10386;54.314;10.022;2022-10-31T06:10:29;101080.03;;;13.05;100.00
20455;BME280;10386;54.314;10.022;2022-10-31T06:12:56;101080.88;;;13.06;100.00
20455;BME280;10386;54.314;10.022;2022-10-31T06:15:23;101076.31;;;13.06;100.00
20455;BME280;10386;54.314;10.022;2022-10-31T06:17:59;101081.75;;;13.06;100.00
20455;BME280;10386;54.314;10.022;2022-10-31T06:20:27;101086.00;;;13.10;100.00
20455;BME280;10386;54.314;10.022;2022-10-31T06:22:55;101082.38;;;13.10;100.00
20455;BME280;10386;54.314;10.022;2022-10-31T06:25:24;101079.78;;;13.08;100.00
20455;BME280;10386;54.314;10.022;2022-10-31T06:27:52;101080.78;;;13.07;100.00
20455;BME280;10386;54.314;10.022;2022-10-31T06:30:37;101067.16;;;13.07;100.00
20455;BME280;10386;54.314;10.022;2022-10-31T06:33:05;101064.91;;;13.01;100.00
20455;BME280;10386;54.314;10.022;2022-10-31T06:35:32;101062.50;;;12.97;100.00
20455;BME280;10386;54.314;10.022;2022-10-31T06:37:59;101071.69;;;12.96;100.00
20455;BME280;10386;54.314;10.022;2022-10-31T06:40:27;101068.94;;;12.96;100.00
20455;BME280;10386;54.314;10.022;2022-10-31T06:43:01;101070.94;;;12.94;100.00
20455;BME280;10386;54.314;10.022;2022-10-31T06:45:29;101074.78;;;12.91;100.00
20455;BME280;10386;54.314;10.022;2022-10-31T06:47:57;101076.28;;;12.95;100.00
20455;BME280;10386;54.314;10.022;2022-10-31T06:50:44;101079.97;;;12.94;100.00
20455;BME280;10386;54.314;10.022;2022-10-31T06:53:11;101084.22;;;12.98;100.00
20455;BME280;10386;54.314;10.022;2022-10-31T06:55:41;101094.75;;;13.03;100.00
20455;BME280;10386;54.314;10.022;2022-10-31T06:58:10;101095.34;;;12.95;100.00
20455;BME280;10386;54.314;10.022;2022-10-31T07:01:00;101102.78;;;12.93;100.00
20455;BME280;10386;54.314;10.022;2022-10-31T07:03:27;101105.59;;;12.92;100.00
20455;BME280;10386;54.314;10.022;2022-10-31T07:05:56;101089.25;;;12.92;100.00
20455;BME280;10386;54.314;10.022;2022-10-31T07:08:23;101090.44;;;12.88;100.00
20455;BME280;10386;54.314;10.022;2022-10-31T07:10:57;101094.06;;;12.88;100.00
20455;BME280;10386;54.314;10.022;2022-10-31T07:13:24;101098.50;;;12.89;100.00
20455;BME280;10386;54.314;10.022;2022-10-31T07:15:53;101093.06;;;12.89;100.00
20455;BME280;10386;54.314;10.022;2022-10-31T07:18:21;101095.59;;;12.92;100.00
20455;BME280;10386;54.314;10.022;2022-10-31T07:20:49;101100.81;;;12.95;100.00
20455;BME280;10386;54.314;10.022;2022-10-31T07:23:16;101101.19;;;13.02;100.00
20455;BME280;10386;54.314;10.022;2022-10-31T07:25:44;101110.53;;;13.10;100.00
20455;BME280;10386;54.314;10.022;2022-10-31T07:28:11;101108.78;;;13.09;100.00
20455;BME280;10386;54.314;10.022;2022-10-31T07:30:39;101110.28;;;13.13;100.00
20455;BME280;10386;54.314;10.022;2022-10-31T07:33:06;101102.97;;;13.14;100.00
20455;BME280;10386;54.314;10.022;2022-10-31T07:35:34;101095.44;;;13.17;100.00
20455;BME280;10386;54.314;10.022;2022-10-31T07:38:10;101093.22;;;13.22;100.00
20455;BME280;10386;54.314;10.022;2022-10-31T07:40:37;101096.28;;;13.18;100.00
20455;BME280;10386;54.314;10.022;2022-10-31T07:43:05;101089.25;;;13.26;100.00
20455;BME280;10386;54.314;10.022;2022-10-31T07:45:39;101085.16;;;13.21;100.00
20455;BME280;10386;54.314;10.022;2022-10-31T07:48:07;101088.25;;;13.27;100.00
20455;BME280;10386;54.314;10.022;2022-10-31T07:50:34;101090.88;;;13.29;100.00
20455;BME280;10386;54.314;10.022;2022-10-31T07:53:04;101084.31;;;13.31;100.00
20455;BME280;10386;54.314;10.022;2022-10-31T07:55:32;101076.59;;;13.25;100.00
20455;BME280;10386;54.314;10.022;2022-10-31T07:58:04;101075.13;;;13.21;100.00
20455;BME280;10386;54.314;10.022;2022-10-31T08:00:33;101082.13;;;13.13;100.00
20455;BME280;10386;54.314;10.022;2022-10-31T08:03:03;101083.84;;;13.03;100.00
20455;BME280;10386;54.314;10.022;2022-10-31T08:05:31;101085.47;;;13.05;100.00
20455;BME280;10386;54.314;10.022;2022-10-31T08:07:59;101088.72;;;13.10;100.00
20455;BME280;10386;54.314;10.022;2022-10-31T08:10:27;101083.88;;;13.14;100.00
20455;BME280;10386;54.314;10.022;2022-10-31T08:13:08;101089.09;;;13.17;100.00
20455;BME280;10386;54.314;10.022;2022-10-31T08:15:36;101093.28;;;13.10;100.00
20455;BME280;10386;54.314;10.022;2022-10-31T08:18:06;101094.91;;;13.12;100.00
20455;BME280;10386;54.314;10.022;2022-10-31T08:20:37;101092.91;;;13.03;100.00
20455;BME280;10386;54.314;10.022;2022-10-31T08:23:05;101084.50;;;13.06;100.00
20455;BME280;10386;54.314;10.022;2022-10-31T08:25:34;101076.28;;;12.95;100.00
20455;BME280;10386;54.314;10.022;2022-10-31T08:28:05;101077.53;;;13.02;100.00
20455;BME280;10386;54.314;10.022;2022-10-31T08:30:35;101066.63;;;13.02;100.00
20455;BME280;10386;54.314;10.022;2022-10-31T08:33:06;101065.75;;;13.02;100.00
20455;BME280;10386;54.314;10.022;2022-10-31T08:35:34;101070.38;;;13.12;100.00
20455;BME280;10386;54.314;10.022;2022-10-31T08:38:02;101060.63;;;13.21;100.00
20455;BME280;10386;54.314;10.022;2022-10-31T08:40:31;101057.03;;;13.20;100.00
20455;BME280;10386;54.314;10.022;2022-10-31T08:43:07;101050.91;;;13.17;100.00
20455;BME280;10386;54.314;10.022;2022-10-31T08:45:37;101054.88;;;13.13;100.00
20455;BME280;10386;54.314;10.022;2022-10-31T08:48:06;101035.69;;;13.14;100.00
20455;BME280;10386;54.314;10.022;2022-10-31T08:50:35;101027.75;;;13.11;100.00
20455;BME280;10386;54.314;10.022;2022-10-31T08:53:09;101016.25;;;13.19;100.00
20455;BME280;10386;54.314;10.022;2022-10-31T08:55:38;101004.97;;;13.23;100.00
20455;BME280;10386;54.314;10.022;2022-10-31T08:58:09;100997.28;;;13.28;100.00
20455;BME280;10386;54.314;10.022;2022-10-31T09:00:38;100983.66;;;13.28;100.00
20455;BME280;10386;54.314;10.022;2022-10-31T09:03:10;100977.59;;;13.36;100.00
20455;BME280;10386;54.314;10.022;2022-10-31T09:05:38;100964.81;;;13.47;100.00
20455;BME280;10386;54.314;10.022;2022-10-31T09:08:07;100952.19;;;13.68;100.00
20455;BME280;10386;54.314;10.022;2022-10-31T09:10:42;100936.13;;;13.85;100.00
20455;BME280;10386;54.314;10.022;2022-10-31T09:13:14;100918.09;;;14.05;100.00
20455;BME280;10386;54.314;10.022;2022-10-31T09:15:43;100899.06;;;13.83;100.00
20455;BME280;10386;54.314;10.022;2022-10-31T09:18:13;100864.44;;;13.83;100.00
20455;BME280;10386;54.314;10.022;2022-10-31T09:20:43;100837.78;;;13.87;100.00
20455;BME280;10386;54.314;10.022;2022-10-31T09:23:18;100842.31;;;13.97;100.00
20455;BME280;10386;54.314;10.022;2022-10-31T09:25:49;100823.44;;;13.94;100.00
20455;BME280;10386;54.314;10.022;2022-10-31T09:28:20;100821.28;;;14.09;100.00
20455;BME280;10386;54.314;10.022;2022-10-31T09:30:50;100805.53;;;14.12;100.00
20455;BME280;10386;54.314;10.022;2022-10-31T09:33:18;100795.00;;;14.08;100.00
20455;BME280;10386;54.314;10.022;2022-10-31T09:35:45;100782.06;;;14.10;100.00
20455;BME280;10386;54.314;10.022;2022-10-31T09:38:15;100767.81;;;14.17;100.00
20455;BME280;10386;54.314;10.022;2022-10-31T09:46:15;100735.69;;;14.30;100.00
20455;BME280;10386;54.314;10.022;2022-10-31T09:51:41;100705.63;;;14.51;100.00
20455;BME280;10386;54.314;10.022;2022-10-31T10:20:28;100623.59;;;15.00;100.00
20455;BME280;10386;54.314;10.022;2022-10-31T10:25:39;100604.63;;;15.08;100.00
20455;BME280;10386;54.314;10.022;2022-10-31T10:28:29;100571.41;;;15.12;100.00
20455;BME280;10386;54.314;10.022;2022-10-31T10:31:12;100561.34;;;15.31;100.00
20455;BME280;10386;54.314;10.022;2022-10-31T10:39:13;100555.13;;;15.39;100.00
20455;BME280;10386;54.314;10.022;2022-10-31T10:41:46;100547.63;;;15.41;100.00
20455;BME280;10386;54.314;10.022;2022-10-31T10:44:14;100561.59;;;15.47;100.00
20455;BME280;10386;54.314;10.022;2022-10-31T10:46:47;100557.72;;;15.40;100.00
20455;BME280;10386;54.314;10.022;2022-10-31T10:49:49;100554.56;;;15.35;100.00
20455;BME280;10386;54.314;10.022;2022-10-31T10:52:31;100558.56;;;15.50;100.00
20455;BME280;10386;54.314;10.022;2022-10-31T10:55:50;100554.25;;;15.48;100.00
20455;BME280;10386;54.314;10.022;2022-10-31T10:58:18;100561.84;;;15.63;100.00
20455;BME280;10386;54.314;10.022;2022-10-31T11:00:46;100568.50;;;15.42;100.00
20455;BME280;10386;54.314;10.022;2022-10-31T11:03:17;100583.19;;;15.41;100.00
20455;BME280;10386;54.314;10.022;2022-10-31T11:05:51;100593.69;;;15.26;100.00
20455;BME280;10386;54.314;10.022;2022-10-31T11:08:28;100585.81;;;15.33;100.00
20455;BME280;10386;54.314;10.022;2022-10-31T11:11:10;100585.34;;;15.56;100.00
20455;BME280;10386;54.314;10.022;2022-10-31T11:13:42;100571.19;;;15.70;100.00
20455;BME280;10386;54.314;10.022;2022-10-31T11:18:53;100588.16;;;15.93;100.00
20455;BME280;10386;54.314;10.022;2022-10-31T11:21:31;100667.25;;;15.86;100.00
20455;BME280;10386;54.314;10.022;2022-10-31T11:24:14;100694.94;;;15.55;100.00
20455;BME280;10386;54.314;10.022;2022-10-31T11:26:45;100600.72;;;15.86;100.00
20455;BME280;10386;54.314;10.022;2022-10-31T11:29:22;100684.69;;;15.85;100.00
20455;BME280;10386;54.314;10.022;2022-10-31T11:31:56;100701.28;;;15.84;100.00
20455;BME280;10386;54.314;10.022;2022-10-31T11:34:30;100706.19;;;15.90;100.00
20455;BME280;10386;54.314;10.022;2022-10-31T11:37:21;100713.94;;;15.94;100.00
20455;BME280;10386;54.314;10.022;2022-10-31T11:39:58;100773.16;;;16.14;100.00
20455;BME280;10386;54.314;10.022;2022-10-31T11:42:30;100810.94;;;16.30;100.00
20455;BME280;10386;54.314;10.022;2022-10-31T11:45:15;100882.88;;;16.13;100.00
20455;BME280;10386;54.314;10.022;2022-10-31T11:47:46;100902.63;;;16.07;100.00
20455;BME280;10386;54.314;10.022;2022-10-31T11:50:24;100909.28;;;16.14;100.00
20455;BME280;10386;54.314;10.022;2022-10-31T11:52:55;100933.34;;;16.20;100.00
20455;BME280;10386;54.314;10.022;2022-10-31T11:55:37;100884.63;;;16.14;100.00
20455;BME280;10386;54.314;10.022;2022-10-31T11:58:23;100921.53;;;16.10;100.00
20455;BME280;10386;54.314;10.022;2022-10-31T12:00:55;100948.88;;;16.00;100.00
